Flight Track Log - Related Links

Times and Time Zones

All times are in EDT time to prevent confusion due to time zone crossing. See the N700QA flight status page for this flight to view local times or setup timezone preferences in your user account.

Time Position Orientation Groundspeed Altitude Reporting Facility
EDT Latitude Longitude Course Direction KTS MPH feet Rate Location/Type
Sun 02:18:32 PM 33.9333 -118.4500 246° West 187 215 2,100  Level Southern California TRACON
Sun 02:19:39 PM 33.9047 -118.5275 246° West 232 267 4,500 2,279 Climbing Los Angeles Center
Sun 02:20:41 PM 33.8472 -118.5517 199° South 249 287 7,000 2,419 Climbing Los Angeles Center
Sun 02:21:43 PM 33.8242 -118.4778 111° Southeast 246 283 9,500 2,177 Climbing Los Angeles Center
Sun 02:22:45 PM 33.8836 -118.4489 22° Northeast 271 312 11,500 2,064 Climbing Los Angeles Center
Sun 02:23:48 PM 33.9494 -118.4228 18° North 256 295 13,800 2,016 Climbing Los Angeles Center
Sun 02:24:50 PM 33.9814 -118.3494 62° Northeast 246 283 15,700 1,790 Climbing Los Angeles Center
Sun 02:25:52 PM 34.0342 -118.2619 54° Northeast 266 306 17,500 1,403 Climbing Los Angeles Center
Sun 02:26:54 PM 34.0758 -118.1839 57° Northeast 274 315 18,600 1,016 Climbing Los Angeles Center
Sun 02:27:56 PM 34.1228 -118.1017 55° Northeast 293 337 19,600 968 Climbing Los Angeles Center
Sun 02:28:58 PM 34.1714 -118.0172 55° Northeast 303 349 20,600 871 Climbing Los Angeles Center
Sun 02:30:00 PM 34.2186 -117.9308 57° Northeast 307 353 21,400 871 Climbing Los Angeles Center
Sun 02:31:02 PM 34.2672 -117.8444 56° Northeast 310 357 22,400 774 Climbing Los Angeles Center
Sun 02:32:04 PM 34.3175 -117.7561 55° Northeast 317 365 23,000 336 Climbing Los Angeles Center
Sun 02:33:07 PM 34.3828 -117.6411 55° Northeast 342 394 23,100 48 Climbing Los Angeles Center
Sun 02:34:09 PM 34.4317 -117.5525 56° Northeast 366 421 23,100  Level Los Angeles Center
Sun 02:35:11 PM 34.4978 -117.4308 57° Northeast 363 418 23,100  Level Los Angeles Center
Sun 02:36:13 PM 34.5531 -117.3308 56° Northeast 360 414 23,100 -48 Level Los Angeles Center
Sun 02:37:15 PM 34.6081 -117.2308 56° Northeast 359 413 23,000  Descending Los Angeles Center
Sun 02:38:17 PM 34.6631 -117.1317 56° Northeast 358 412 23,100  Climbing Los Angeles Center
Sun 02:39:19 PM 34.7175 -117.0308 57° Northeast 358 412 23,000 -48 Descending Los Angeles Center
Sun 02:40:21 PM 34.7836 -116.9108 56° Northeast 356 410 23,000 48 Level Los Angeles Center
Sun 02:41:23 PM 34.8381 -116.8092 57° Northeast 360 414 23,100  Climbing Los Angeles Center
Sun 02:42:25 PM 34.8928 -116.7081 57° Northeast 359 413 23,000 -48 Descending Los Angeles Center
Sun 02:43:27 PM 34.9478 -116.6089 56° Northeast 356 410 23,000  Level Los Angeles Center
Sun 02:44:30 PM 35.0108 -116.5197 49° Northeast 350 403 23,000  Level Los Angeles Center
Sun 02:45:32 PM 35.0925 -116.4178 46° Northeast 350 403 23,000  Level Los Angeles Center
Sun 02:46:34 PM 35.1603 -116.3311 46° Northeast 354 407 23,000  Level Los Angeles Center
Sun 02:47:36 PM 35.2311 -116.2478 44° Northeast 354 407 23,000 -194 Level Los Angeles Center
Sun 02:48:38 PM 35.2978 -116.1617 46° Northeast 352 405 22,600 -1,065 Descending Los Angeles Center
Sun 02:49:40 PM 35.3619 -116.0781 47° Northeast 342 394 20,800 -2,081 Descending Los Angeles Center
Sun 02:50:42 PM 35.4422 -115.9767 46° Northeast 345 397 18,300 -2,274 Descending Los Angeles Center
Sun 02:51:44 PM 35.5081 -115.8953 45° Northeast 341 392 16,100 -2,098 Descending Los Angeles Center
Sun 02:52:45 PM 35.5800 -115.8114 43° Northeast 329 379 14,000 -1,403 Descending Los Angeles Center
Sun 02:53:48 PM 35.6156 -115.7339 61° Northeast 314 361 13,200 -422 Descending Los Angeles Center
Sun 02:54:53 PM 35.6139 -115.6472 91° East 231 266 13,100 -336 Descending Los Angeles Center
Sun 02:55:53 PM 35.6119 -115.5769 92° East 239 275 12,500 -885 Descending Los Angeles Center
Sun 02:56:55 PM 35.6342 -115.4922 72° East 241 277 11,300 -1,023 Descending Los Angeles Center
Sun 02:58:02 PM 35.7011 -115.4606 21° North 243 280 10,300 -871 Descending Los Angeles Center
Sun 02:58:59 PM 35.7539 -115.4333 23° Northeast 237 273 9,500 -807 Descending Los Angeles Center
Sun 03:00:01 PM 35.8119 -115.4042 22° Northeast 231 266 8,700 -706 Descending Los Angeles Center
Sun 03:00:58 PM 35.8711 -115.3789 19° North 225 259 8,100 -774 Descending Los Angeles Center
Sun 03:02:05 PM 35.9433 -115.3489 19° North 228 262 7,100 -984 Descending Los Angeles Center
Sun 03:03:00 PM 35.9936 -115.3256 21° North 205 236 6,100 -1,082 Descending Los Angeles Center
Sun 03:04:07 PM 36.0386 -115.2842 37° Northeast 191 220 4,900 -1,131 Descending Los Angeles Center
Sun 03:05:02 PM 36.0639 -115.2414 54° Northeast 169 194 3,800 -1,131 Descending Los Angeles Center
Sun 03:06:09 PM 36.0742 -115.1794 78° East 157 181 2,600 -1,075 Descending Los Angeles Center
Sun 03:08:00 PM 36.0801 -115.1523 112° Southeast  Level Estimated

Login

Don't have an account? Register now (free) for customized features, flight alerts, and more!